createdAt,value
2022-11-10T00:01:28.065Z,100403.78
2022-11-10T00:04:16.896Z,100408.31
2022-11-10T00:07:07.097Z,100412.81
2022-11-10T00:09:55.932Z,100403.78
2022-11-10T00:12:44.530Z,100409.13
2022-11-10T00:15:51.030Z,100412.81
2022-11-10T00:18:39.615Z,100414.88
2022-11-10T00:21:28.303Z,100414.03
2022-11-10T00:24:18.268Z,100418.59
2022-11-10T00:27:06.904Z,100421.88
2022-11-10T00:29:55.599Z,100426.41
2022-11-10T00:32:44.319Z,100425.56
2022-11-10T00:35:32.896Z,100439.13
2022-11-10T00:38:21.458Z,100430.91
2022-11-10T00:41:11.595Z,100437.91
2022-11-10T00:44:00.199Z,100439.94
2022-11-10T00:46:48.797Z,100446.94
2022-11-10T00:49:37.410Z,100453.50
2022-11-10T00:52:26.028Z,100452.28
2022-11-10T00:55:14.668Z,100446.31
2022-11-10T00:58:04.586Z,100453.50
2022-11-10T01:00:53.305Z,100454.34
2022-11-10T01:03:42.715Z,100465.03
2022-11-10T01:06:31.370Z,100463.38
2022-11-10T01:09:20.636Z,100470.38
2022-11-10T01:12:09.357Z,100479.41
2022-11-10T01:14:59.495Z,100482.69
2022-11-10T01:17:48.307Z,100487.41
2022-11-10T01:20:37.417Z,100485.16
2022-11-10T01:23:28.007Z,100478.78
2022-11-10T01:26:17.067Z,100481.06
2022-11-10T01:29:05.752Z,100477.75
2022-11-10T01:31:55.807Z,100479.81
2022-11-10T01:34:44.444Z,100488.63
2022-11-10T01:37:33.101Z,100496.03
2022-11-10T01:40:22.027Z,100486.16
2022-11-10T01:43:12.037Z,100498.69
2022-11-10T01:46:02.411Z,100494.16
2022-11-10T01:48:55.216Z,100499.50
2022-11-10T01:51:47.867Z,100510.19
2022-11-10T01:54:40.201Z,100501.19
2022-11-10T01:57:28.816Z,100511.03
2022-11-10T02:00:17.916Z,100507.72
2022-11-10T02:03:12.152Z,100505.47
2022-11-10T02:06:02.342Z,100505.25
2022-11-10T02:08:51.696Z,100505.88
2022-11-10T02:11:41.646Z,100509.78
2022-11-10T02:14:30.357Z,100502.38
2022-11-10T02:17:18.986Z,100507.72
2022-11-10T02:20:10.736Z,100498.25
2022-11-10T02:23:00.738Z,100501.56
2022-11-10T02:25:49.342Z,100499.91
2022-11-10T02:28:39.508Z,100511.00
2022-11-10T02:31:28.099Z,100511.78
2022-11-10T02:34:17.480Z,100525.38
2022-11-10T02:37:06.050Z,100528.03
2022-11-10T02:39:55.991Z,100539.53
2022-11-10T02:42:44.548Z,100544.88
2022-11-10T02:45:33.256Z,100549.00
2022-11-10T02:48:22.185Z,100552.06
2022-11-10T02:51:10.793Z,100557.41
2022-11-10T02:53:59.470Z,100564.81
2022-11-10T02:56:49.506Z,100578.34
2022-11-10T02:59:38.129Z,100574.84
2022-11-10T03:02:31.963Z,100595.22
2022-11-10T03:05:20.942Z,100583.28
2022-11-10T03:08:09.639Z,100586.19
2022-11-10T03:10:58.535Z,100589.47
2022-11-10T03:14:00.805Z,100589.47
2022-11-10T03:16:50.396Z,100604.66
2022-11-10T03:19:38.998Z,100604.88
2022-11-10T03:22:27.603Z,100612.88
2022-11-10T03:25:16.159Z,100612.88
2022-11-10T03:28:04.816Z,100618.00
2022-11-10T03:30:54.741Z,100617.00
2022-11-10T03:33:43.397Z,100625.22
2022-11-10T03:36:33.084Z,100624.19
2022-11-10T03:39:21.673Z,100633.84
2022-11-10T03:42:10.257Z,100630.56
2022-11-10T03:44:58.877Z,100639.59
2022-11-10T03:47:49.553Z,100645.97
2022-11-10T03:50:38.275Z,100647.41
2022-11-10T03:53:26.830Z,100642.91
2022-11-10T03:56:15.530Z,100648.22
2022-11-10T03:59:04.285Z,100648.22
2022-11-10T04:01:52.889Z,100652.94
2022-11-10T04:05:00.393Z,100652.28
2022-11-10T04:08:06.465Z,100668.13
2022-11-10T04:10:55.062Z,100668.31
2022-11-10T04:14:01.435Z,100670.00
2022-11-10T04:16:50.386Z,100666.66
2022-11-10T04:19:38.958Z,100679.00
2022-11-10T04:22:42.811Z,100688.03
2022-11-10T04:25:51.438Z,100688.03
2022-11-10T04:28:40.363Z,100690.91
2022-11-10T04:31:30.583Z,100690.06
2022-11-10T04:34:19.216Z,100693.75
2022-11-10T04:37:07.829Z,100706.09
2022-11-10T04:39:57.814Z,100703.63
2022-11-10T04:42:46.401Z,100711.44
2022-11-10T04:45:35.274Z,100717.41
2022-11-10T04:48:24.181Z,100708.38
2022-11-10T04:51:13.244Z,100716.78
2022-11-10T04:54:02.127Z,100722.97
2022-11-10T04:56:52.333Z,100725.44
2022-11-10T04:59:40.860Z,100733.44
2022-11-10T05:02:29.634Z,100731.78
2022-11-10T05:05:18.400Z,100739.81
2022-11-10T05:08:07.421Z,100737.13
2022-11-10T05:10:55.983Z,100741.44
2022-11-10T05:13:46.701Z,100743.09
2022-11-10T05:16:35.367Z,100749.34
2022-11-10T05:19:24.002Z,100762.06
2022-11-10T05:22:12.571Z,100766.00
2022-11-10T05:25:01.180Z,100771.44
2022-11-10T05:27:49.758Z,100777.06
2022-11-10T05:30:39.958Z,100784.69
2022-11-10T05:33:28.530Z,100789.38
2022-11-10T05:36:17.133Z,100787.75
2022-11-10T05:39:05.955Z,100787.34
2022-11-10T05:41:54.622Z,100783.69
2022-11-10T05:44:43.268Z,100781.66
2022-11-10T05:47:33.196Z,100786.59
2022-11-10T05:50:22.808Z,100792.78
2022-11-10T05:53:11.499Z,100792.72
2022-11-10T05:56:00.188Z,100792.41
2022-11-10T05:58:48.881Z,100806.97
2022-11-10T06:01:37.485Z,100806.31
2022-11-10T06:04:27.580Z,100818.19
2022-11-10T06:07:16.143Z,100819.03
2022-11-10T06:10:04.990Z,100829.72
2022-11-10T06:12:53.723Z,100827.31
2022-11-10T06:15:47.550Z,100840.28
2022-11-10T06:18:38.717Z,100840.47
2022-11-10T06:21:28.770Z,100856.50
2022-11-10T06:24:17.405Z,100861.22
2022-11-10T06:27:06.069Z,100868.56
2022-11-10T06:29:54.687Z,100877.41
2022-11-10T06:32:44.708Z,100891.78
2022-11-10T06:35:33.393Z,100889.75
2022-11-10T06:38:23.376Z,100905.41
2022-11-10T06:41:12.102Z,100900.44
2022-11-10T06:44:00.810Z,100915.81
2022-11-10T06:46:49.480Z,100920.16
2022-11-10T06:49:38.200Z,100924.38
2022-11-10T06:52:26.745Z,100933.41
2022-11-10T06:55:16.935Z,100941.13
2022-11-10T06:58:05.472Z,100952.03
2022-11-10T07:00:54.190Z,100953.84
2022-11-10T07:04:05.105Z,100963.34
2022-11-10T07:06:51.958Z,100967.03
2022-11-10T07:09:40.599Z,100959.19
2022-11-10T07:12:30.642Z,100967.38
2022-11-10T07:15:19.344Z,100970.25
2022-11-10T07:18:08.046Z,100984.63
2022-11-10T07:20:56.636Z,100993.28
2022-11-10T07:23:46.781Z,100999.81
2022-11-10T07:26:35.593Z,101008.03
2022-11-10T07:29:25.725Z,101006.34
2022-11-10T07:32:14.882Z,101013.53
2022-11-10T07:35:03.660Z,101017.88
2022-11-10T07:37:52.312Z,101027.69
2022-11-10T07:40:41.386Z,101029.72
2022-11-10T07:43:30.085Z,101029.38
2022-11-10T07:46:20.177Z,101035.06
2022-11-10T07:49:08.863Z,101042.91
2022-11-10T07:51:57.751Z,101042.06
2022-11-10T07:54:46.440Z,101045.59
2022-11-10T07:57:35.502Z,101043.09
2022-11-10T08:00:24.482Z,101050.44
2022-11-10T08:03:15.670Z,101050.28
2022-11-10T08:06:04.452Z,101065.09
2022-11-10T08:08:53.349Z,101066.78
2022-11-10T08:11:42.050Z,101069.63
2022-11-10T08:14:30.721Z,101084.78
2022-11-10T08:17:19.624Z,101083.13
2022-11-10T08:20:11.134Z,101084.78
2022-11-10T08:23:00.701Z,101093.47
2022-11-10T08:25:52.923Z,101086.44
2022-11-10T08:28:41.585Z,101093.09
2022-11-10T08:31:30.331Z,101101.94
2022-11-10T08:34:18.990Z,101110.31
2022-11-10T08:37:09.073Z,101108.50
2022-11-10T08:39:57.742Z,101113.63
2022-11-10T08:42:46.408Z,101118.16
2022-11-10T08:45:35.715Z,101130.88
2022-11-10T08:48:24.808Z,101127.19
2022-11-10T08:51:13.525Z,101123.50
2022-11-10T08:54:03.564Z,101124.53
2022-11-10T08:56:52.186Z,101147.16
2022-11-10T08:59:40.797Z,101142.84
2022-11-10T09:02:30.444Z,101146.44
2022-11-10T09:05:19.114Z,101152.06
2022-11-10T09:08:08.512Z,101156.88
2022-11-10T09:10:58.493Z,101163.72
2022-11-10T09:13:47.167Z,101162.50
2022-11-10T09:16:35.805Z,101155.97
2022-11-10T09:19:24.558Z,101160.94
2022-11-10T09:22:13.312Z,101174.13
2022-11-10T09:25:02.051Z,101175.69
2022-11-10T09:27:52.060Z,101179.75
2022-11-10T09:30:40.868Z,101176.41
2022-11-10T09:33:29.572Z,101175.22
2022-11-10T09:36:18.263Z,101187.09
2022-11-10T09:39:07.149Z,101188.28
2022-11-10T09:41:56.182Z,101184.25
2022-11-10T09:44:52.097Z,101186.38
2022-11-10T09:47:57.350Z,101193.38
2022-11-10T09:50:50.140Z,101204.16
2022-11-10T09:53:40.800Z,101209.34
2022-11-10T09:56:33.574Z,101207.59
2022-11-10T09:59:27.421Z,101206.88
2022-11-10T10:02:24.732Z,101213.09
2022-11-10T10:05:35.950Z,101219.81
2022-11-10T10:08:31.449Z,101222.88
2022-11-10T10:11:28.911Z,101220.47
2022-11-10T10:14:29.854Z,101221.47
2022-11-10T10:17:27.057Z,101216.34
2022-11-10T10:20:19.702Z,101214.66
2022-11-10T10:23:15.838Z,101205.16
2022-11-10T10:26:04.680Z,101211.34
2022-11-10T10:28:55.348Z,101222.41
2022-11-10T10:31:45.484Z,101219.81
2022-11-10T10:34:35.730Z,101225.88
2022-11-10T10:37:28.168Z,101221.38
2022-11-10T10:40:18.276Z,101220.03
2022-11-10T10:43:06.929Z,101218.59
2022-11-10T10:46:06.740Z,101222.91
2022-11-10T10:49:28.119Z,101218.16
2022-11-10T10:52:24.976Z,101214.47
2022-11-10T10:55:15.044Z,101220.66
2022-11-10T10:58:05.470Z,101213.91
2022-11-10T11:00:56.802Z,101220.84
2022-11-10T11:03:46.966Z,101216.91
2022-11-10T11:06:36.526Z,101214.66
2022-11-10T11:09:28.350Z,101217.06
2022-11-10T11:12:29.006Z,101219.72
2022-11-10T11:15:25.723Z,101207.81
2022-11-10T11:18:16.123Z,101212.97
2022-11-10T11:21:10.921Z,101230.19
2022-11-10T11:24:08.657Z,101229.97
2022-11-10T11:27:02.862Z,101235.22
2022-11-10T11:30:02.325Z,101230.72
2022-11-10T11:33:12.233Z,101235.63
2022-11-10T11:36:05.677Z,101238.91
2022-11-10T11:38:57.991Z,101240.63
2022-11-10T11:41:52.382Z,101234.41
2022-11-10T11:44:53.321Z,101229.69
2022-11-10T11:47:56.154Z,101249.00
2022-11-10T11:50:51.963Z,101241.94
2022-11-10T11:53:51.949Z,101243.81
2022-11-10T11:56:43.188Z,101244.94
2022-11-10T11:59:45.600Z,101240.97
2022-11-10T12:02:56.001Z,101238.09
2022-11-10T12:05:49.722Z,101247.06
2022-11-10T12:08:44.833Z,101244.19
2022-11-10T12:11:43.638Z,101246.72
2022-11-10T12:14:38.972Z,101244.63
2022-11-10T12:17:38.232Z,101258.75
2022-11-10T12:20:40.626Z,101259.69
2022-11-10T12:23:36.944Z,101255.44
2022-11-10T12:26:35.277Z,101248.97
2022-11-10T12:29:29.923Z,101260.22
2022-11-10T12:32:22.360Z,101252.88
2022-11-10T12:35:19.712Z,101264.09
2022-11-10T12:38:12.265Z,101262.81
2022-11-10T12:41:05.787Z,101261.91
2022-11-10T12:44:04.346Z,101260.97
2022-11-10T12:46:57.484Z,101254.78
2022-11-10T12:49:53.436Z,101256.81
2022-11-10T12:52:48.002Z,101261.44
2022-11-10T12:55:40.421Z,101263.56
2022-11-10T12:58:29.174Z,101265.63
2022-11-10T13:01:21.239Z,101261.06
2022-11-10T13:04:09.885Z,101261.91
2022-11-10T13:07:00.913Z,101258.19
2022-11-10T13:09:53.587Z,101258.75
2022-11-10T13:13:00.186Z,101267.06
2022-11-10T13:15:51.766Z,101273.13
2022-11-10T13:19:01.812Z,101279.34
2022-11-10T13:22:09.947Z,101282.09
2022-11-10T13:25:35.986Z,101277.66
2022-11-10T13:28:59.748Z,101280.91
2022-11-10T13:31:53.672Z,101282.47
2022-11-10T13:34:42.775Z,101289.47
2022-11-10T13:37:50.673Z,101292.78
2022-11-10T13:40:44.361Z,101293.63
2022-11-10T13:43:33.380Z,101294.53
2022-11-10T13:46:24.052Z,101303.88
2022-11-10T13:49:39.446Z,101296.19
2022-11-10T13:52:36.067Z,101312.53
2022-11-10T13:55:36.297Z,101310.31
2022-11-10T13:58:27.617Z,101304.59
2022-11-10T14:01:30.430Z,101306.25
2022-11-10T14:04:39.112Z,101304.31
2022-11-10T14:07:29.802Z,101311.34
2022-11-10T14:10:20.665Z,101325.34
2022-11-10T14:13:15.291Z,101327.00
2022-11-10T14:16:04.224Z,101321.66
2022-11-10T14:18:58.628Z,101333.66
2022-11-10T14:21:55.405Z,101330.44
2022-11-10T14:24:55.701Z,101338.28
2022-11-10T14:27:46.172Z,101334.97
2022-11-10T14:30:34.985Z,101348.34
2022-11-10T14:33:24.102Z,101348.03
2022-11-10T14:36:14.729Z,101359.13
2022-11-10T14:39:03.888Z,101355.72
2022-11-10T14:41:52.600Z,101366.13
2022-11-10T14:44:41.909Z,101368.16
2022-11-10T14:47:31.886Z,101373.25
2022-11-10T14:50:23.705Z,101374.59
2022-11-10T14:53:23.206Z,101382.72
2022-11-10T14:56:17.824Z,101377.69
2022-11-10T14:59:08.053Z,101378.44
2022-11-10T15:01:57.975Z,101375.13
2022-11-10T15:04:47.570Z,101374.47
2022-11-10T15:07:36.491Z,101375.44
2022-11-10T15:10:28.219Z,101390.78
2022-11-10T15:13:21.288Z,101387.84
2022-11-10T15:16:23.044Z,101396.50
2022-11-10T15:19:26.021Z,101400.88
2022-11-10T15:22:18.783Z,101401.63
2022-11-10T15:25:14.777Z,101413.31
2022-11-10T15:28:07.679Z,101413.00
2022-11-10T15:30:58.078Z,101419.19
2022-11-10T15:33:49.573Z,101417.84
2022-11-10T15:36:39.645Z,101419.50
2022-11-10T15:39:30.123Z,101420.72
2022-11-10T15:42:21.279Z,101429.25
2022-11-10T15:45:11.559Z,101430.44
2022-11-10T15:48:00.234Z,101435.13
2022-11-10T15:50:51.102Z,101448.50
2022-11-10T15:53:43.526Z,101455.66
2022-11-10T15:56:32.214Z,101453.84
2022-11-10T15:59:20.817Z,101454.66
2022-11-10T16:02:20.598Z,101445.97
2022-11-10T16:05:12.052Z,101450.16
2022-11-10T16:08:00.695Z,101453.00
2022-11-10T16:10:50.768Z,101451.31
2022-11-10T16:13:39.838Z,101468.22
2022-11-10T16:16:28.533Z,101470.88
2022-11-10T16:19:18.630Z,101462.88
2022-11-10T16:22:07.252Z,101487.06
2022-11-10T16:24:55.839Z,101486.25
2022-11-10T16:27:44.531Z,101496.38
2022-11-10T16:30:33.326Z,101497.38
2022-11-10T16:33:24.580Z,101497.91
2022-11-10T16:36:21.919Z,101501.94
2022-11-10T16:39:13.952Z,101506.78
2022-11-10T16:42:02.585Z,101509.66
2022-11-10T16:44:51.201Z,101503.31
2022-11-10T16:47:39.884Z,101515.81
2022-11-10T16:50:32.568Z,101518.66
2022-11-10T16:53:25.164Z,101520.88
2022-11-10T16:56:15.967Z,101519.00
2022-11-10T16:59:05.004Z,101521.03
2022-11-10T17:01:54.595Z,101521.03
2022-11-10T17:04:43.451Z,101527.38
2022-11-10T17:07:32.101Z,101529.06
2022-11-10T17:10:22.799Z,101522.69
2022-11-10T17:13:11.686Z,101536.56
2022-11-10T17:16:04.967Z,101539.09
2022-11-10T17:18:53.692Z,101537.06
2022-11-10T17:21:42.437Z,101535.41
2022-11-10T17:24:31.152Z,101537.06
2022-11-10T17:27:21.234Z,101536.72
2022-11-10T17:30:13.014Z,101546.22
2022-11-10T17:33:05.603Z,101550.41
2022-11-10T17:35:54.934Z,101556.72
2022-11-10T17:38:44.267Z,101569.06
2022-11-10T17:41:32.887Z,101558.38
2022-11-10T17:44:22.862Z,101565.25
2022-11-10T17:47:11.512Z,101569.94
2022-11-10T17:50:00.143Z,101562.09
2022-11-10T17:52:49.451Z,101571.78
2022-11-10T17:55:38.101Z,101573.59
2022-11-10T17:58:26.791Z,101577.13
2022-11-10T18:01:22.572Z,101576.13
2022-11-10T18:04:16.732Z,101587.47
2022-11-10T18:07:05.415Z,101588.63
2022-11-10T18:09:54.007Z,101587.78
2022-11-10T18:12:42.851Z,101582.91
2022-11-10T18:15:32.061Z,101576.41
2022-11-10T18:18:22.060Z,101583.41
2022-11-10T18:21:11.571Z,101580.41
2022-11-10T18:24:00.190Z,101580.09
2022-11-10T18:26:48.852Z,101580.38
2022-11-10T18:29:37.499Z,101587.38
2022-11-10T18:32:26.184Z,101598.22
2022-11-10T18:35:17.730Z,101603.41
2022-11-10T18:38:06.617Z,101598.06
2022-11-10T18:40:55.359Z,101601.56
2022-11-10T18:43:43.969Z,101600.94
2022-11-10T18:46:32.554Z,101607.97
2022-11-10T18:49:21.419Z,101605.50
2022-11-10T18:52:11.799Z,101616.56
2022-11-10T18:55:01.046Z,101617.69
2022-11-10T18:57:49.868Z,101621.66
2022-11-10T19:00:38.451Z,101614.53
2022-11-10T19:03:27.039Z,101613.47
2022-11-10T19:06:15.908Z,101607.53
2022-11-10T19:09:06.160Z,101608.97
2022-11-10T19:11:54.786Z,101608.81
2022-11-10T19:14:43.469Z,101612.03
2022-11-10T19:17:32.088Z,101611.38
2022-11-10T19:20:20.700Z,101621.78
2022-11-10T19:23:17.868Z,101612.78
2022-11-10T19:26:21.908Z,101620.50
2022-11-10T19:29:11.290Z,101613.47
2022-11-10T19:32:18.612Z,101627.50
2022-11-10T19:35:15.053Z,101627.88
2022-11-10T19:38:03.680Z,101623.53
2022-11-10T19:40:52.432Z,101625.19
2022-11-10T19:43:47.139Z,101616.50
2022-11-10T19:46:37.024Z,101617.50
2022-11-10T19:49:25.675Z,101621.16
2022-11-10T19:52:14.322Z,101625.88
2022-11-10T19:55:03.171Z,101638.22
2022-11-10T19:57:52.147Z,101635.22
2022-11-10T20:00:43.449Z,101649.09
2022-11-10T20:03:32.024Z,101639.22
2022-11-10T20:06:22.525Z,101646.72
2022-11-10T20:09:11.194Z,101649.59
2022-11-10T20:11:59.883Z,101653.06
2022-11-10T20:14:48.653Z,101655.75
2022-11-10T20:17:38.678Z,101650.59
2022-11-10T20:20:27.329Z,101656.94
2022-11-10T20:23:16.875Z,101662.97
2022-11-10T20:26:07.574Z,101665.78
2022-11-10T20:28:56.237Z,101663.78
2022-11-10T20:31:51.457Z,101674.66
2022-11-10T20:34:41.516Z,101679.81
2022-11-10T20:37:33.877Z,101680.66
2022-11-10T20:40:43.304Z,101690.03
2022-11-10T20:43:31.764Z,101705.22
2022-11-10T20:46:48.287Z,101703.41
2022-11-10T20:49:31.422Z,101696.53
2022-11-10T20:52:21.519Z,101684.00
2022-11-10T20:55:18.063Z,101681.00
2022-11-10T20:58:07.214Z,101678.16
2022-11-10T21:00:56.024Z,101671.97
2022-11-10T21:03:44.595Z,101659.63
2022-11-10T21:06:33.216Z,101670.63
2022-11-10T21:09:23.657Z,101670.63
2022-11-10T21:12:32.198Z,101674.66
2022-11-10T21:15:21.565Z,101669.97
2022-11-10T21:18:10.224Z,101675.66
2022-11-10T21:20:59.065Z,101670.97
2022-11-10T21:23:47.718Z,101670.31
2022-11-10T21:26:37.972Z,101660.44
2022-11-10T21:29:26.820Z,101669.31
2022-11-10T21:32:15.416Z,101670.31
2022-11-10T21:35:04.077Z,101667.63
2022-11-10T21:37:52.761Z,101673.81
2022-11-10T21:40:41.599Z,101670.97
2022-11-10T21:43:31.815Z,101683.50
2022-11-10T21:46:20.932Z,101688.34
2022-11-10T21:49:09.617Z,101696.19
2022-11-10T21:51:58.458Z,101699.03
2022-11-10T21:54:47.062Z,101692.03
2022-11-10T21:57:35.685Z,101693.69
2022-11-10T22:00:26.801Z,101694.69
2022-11-10T22:03:15.525Z,101701.03
2022-11-10T22:06:05.462Z,101700.22
2022-11-10T22:08:54.328Z,101697.38
2022-11-10T22:12:00.479Z,101695.72
2022-11-10T22:15:06.821Z,101699.38
2022-11-10T22:18:14.677Z,101701.53
2022-11-10T22:21:03.799Z,101711.41
2022-11-10T22:24:10.239Z,101713.75
2022-11-10T22:27:00.253Z,101726.47
2022-11-10T22:29:49.818Z,101731.81
2022-11-10T22:32:38.723Z,101731.81
2022-11-10T22:35:47.242Z,101728.81
2022-11-10T22:38:37.468Z,101722.63
2022-11-10T22:41:43.955Z,101725.44
2022-11-10T22:44:32.702Z,101722.78
2022-11-10T22:47:21.409Z,101719.94
2022-11-10T22:50:10.218Z,101720.09
2022-11-10T22:53:00.336Z,101717.13
2022-11-10T22:55:49.122Z,101720.78
2022-11-10T22:58:37.847Z,101719.78
2022-11-10T23:01:26.828Z,101725.44
2022-11-10T23:04:16.192Z,101722.13
2022-11-10T23:07:05.145Z,101727.81
2022-11-10T23:09:55.308Z,101722.81
2022-11-10T23:12:44.062Z,101725.63
2022-11-10T23:15:34.622Z,101728.16
2022-11-10T23:18:23.809Z,101726.13
2022-11-10T23:21:14.283Z,101716.81
2022-11-10T23:24:03.135Z,101711.63
2022-11-10T23:26:53.328Z,101722.44
2022-11-10T23:29:42.060Z,101712.63
2022-11-10T23:32:30.838Z,101722.31
2022-11-10T23:35:19.652Z,101720.63
2022-11-10T23:38:08.611Z,101735.00
2022-11-10T23:40:57.682Z,101735.00
2022-11-10T23:43:48.640Z,101726.78
2022-11-10T23:46:37.667Z,101726.78
2022-11-10T23:49:26.421Z,101739.50
2022-11-10T23:52:15.158Z,101742.34
2022-11-10T23:55:04.020Z,101732.13
2022-11-10T23:57:52.771Z,101739.50
